PASN Airport Information

Runway Information
Runway 18 Length 6500 ft width 150 ft
Elevation 63 ft Threshold 0 ft Heading 190
Runway 36 Length 6500 ft Width 150 ft
Elevation 36 ft Threshold 0 ft Heading 10
Airport Frequencies
Type ASOS Name ASOS Frequency 135.75 MHZ
Type CNTR Name ANCHORAGE Frequency 119.1 MHZ
Type CTAF Name CTAF Frequency 122.3 MHZ
Type FSS Name COLD BAY R Frequency 122.45 MHZ
Type MISC Name NWS OBSVR Frequency 122 MHZ
Airport Navaids
Type NDB-DME Name Saint Paul Island Frequency 314 KHZ
Airport Weather Information & NOTAM
ADDS - METARS form results

(0108 UTC 23 January 2019)
Data provider http://aviationweather.gov/metar/data/
 
METAR text: PASN 230102Z AUTO 13015KT 7SM FEW012 BKN037 OVC100 03/02 A2884 RMK AO2 T00280017 TSNO $
Conditions at: PASN (ST PAUL ISLAND , AK, US) observed 0102 UTC 23 January 2019
Temperature: 2.8°C (37°F)
Dewpoint: 1.7°C (35°F) [RH = 92%]
Pressure (altimeter): 28.84 inches Hg (976.7 mb)
Winds: from the SE (130 degrees) at 17 MPH (15 knots; 7.7 m/s)
Visibility: 7 miles (11 km)
Ceiling: 3700 feet AGL
Clouds: few clouds at 1200 feet AGL
broken clouds at 3700 feet AGL
overcast cloud deck at 10000 feet AGL
Weather:
SOME DATA ABOVE MAY BE INACCURATE!!!
"$" is an indication the sensor requires maintenance

METAR text: PASN 230053Z AUTO 12013KT 7SM BKN014 BKN019 OVC038 03/02 A2884 RMK AO2 RAE51 SLP768 P0002 T00280017 TSNO $
Conditions at: PASN (ST PAUL ISLAND , AK, US) observed 0053 UTC 23 January 2019
Temperature: 2.8°C (37°F)
Dewpoint: 1.7°C (35°F) [RH = 92%]
Pressure (altimeter): 28.84 inches Hg (976.7 mb)
[Sea-level pressure:  976.8 mb]
Winds: from the ESE (120 degrees) at 15 MPH (13 knots; 6.7 m/s)
Visibility: 7 miles (11 km)
Ceiling: 1400 feet AGL
Clouds: broken clouds at 1400 feet AGL
broken clouds at 1900 feet AGL
overcast cloud deck at 3800 feet AGL
Weather:
SOME DATA ABOVE MAY BE INACCURATE!!!
"$" is an indication the sensor requires maintenance

METAR text: PASN 230027Z AUTO 12011KT 9SM -RA BKN013 OVC021 03/02 A2884 RMK AO2 P0001 T00280017 TSNO $
Conditions at: PASN (ST PAUL ISLAND , AK, US) observed 0027 UTC 23 January 2019
Temperature: 2.8°C (37°F)
Dewpoint: 1.7°C (35°F) [RH = 92%]
Pressure (altimeter): 28.84 inches Hg (976.7 mb)
Winds: from the ESE (120 degrees) at 13 MPH (11 knots; 5.7 m/s)
Visibility: 9 miles (14 km)
Ceiling: 1300 feet AGL
Clouds: broken clouds at 1300 feet AGL
overcast cloud deck at 2100 feet AGL
Weather: -RA  (light rain)
SOME DATA ABOVE MAY BE INACCURATE!!!
"$" is an indication the sensor requires maintenance

Forecast for: PASN (ST PAUL ISLAND , AK, US)
Text: PASN 222343Z 2300/2324 12015KT P6SM -SHRA SCT015 BKN025
Forecast period: 0000 to 0300 UTC 23 January 2019
Forecast type: FROM: standard forecast or significant change
Winds: from the ESE (120 degrees) at 17 MPH (15 knots; 7.7 m/s)
Visibility: 6 or more miles 10+ km)
Ceiling: 2500 feet AGL
Clouds: scattered clouds at 1500 feet AGL
broken clouds at 2500 feet AGL
Weather: -SHRA  (light rain showers)
Text: FM230300 11011KT P6SM SCT025 BKN035
Forecast period: 0300 UTC 23 January 2019 to 0000 UTC 24 January 2019
Forecast type: FROM: standard forecast or significant change
Winds: from the ESE (110 degrees) at 13 MPH (11 knots; 5.7 m/s)
Visibility: 6 or more miles 10+ km)
Ceiling: 3500 feet AGL
Clouds: scattered clouds at 2500 feet AGL
broken clouds at 3500 feet AGL
Weather: no significant weather forecast for this period